Time;durP1;ratioP1;P1;durP2;ratioP2;P2;SDS_P1;SDS_P2;PMS_P1;PMS_P2;Temp;Humidity;BMP_temperature;BMP_pressure;BME280_temperature;BME280_humidity;BME280_pressure;Samples;Min_cycle;Max_cycle;Signal;HPM_P1;HPM_P2
2021/10/01 00:00:08;;;;;;;23.83;22.30;;;9.30;84.30;;;;;;5073695;28;20249;-71
2021/10/01 00:02:35;;;;;;;23.88;22.38;;;9.30;84.50;;;;;;5075223;28;20209;-71
2021/10/01 00:05:02;;;;;;;24.42;23.10;;;9.20;84.70;;;;;;5077316;28;20220;-72
2021/10/01 00:07:29;;;;;;;24.52;22.95;;;9.20;84.50;;;;;;5076781;28;20233;-71
2021/10/01 00:09:58;;;;;;;23.20;21.80;;;9.20;84.60;;;;;;5075024;28;20305;-70
2021/10/01 00:12:25;;;;;;;23.92;22.50;;;9.10;84.90;;;;;;5073430;28;20277;-71
2021/10/01 00:14:52;;;;;;;23.13;21.83;;;9.10;84.90;;;;;;5072194;28;20202;-71
2021/10/01 00:17:20;;;;;;;23.92;22.60;;;9.20;84.80;;;;;;5085595;28;20196;-71
2021/10/01 00:19:47;;;;;;;23.50;22.05;;;9.20;84.50;;;;;;5075797;28;20223;-70
2021/10/01 00:22:14;;;;;;;24.75;23.20;;;9.20;84.80;;;;;;5080999;28;20192;-70
2021/10/01 00:24:41;;;;;;;24.52;22.92;;;9.10;85.10;;;;;;5073169;28;20279;-71
2021/10/01 00:27:12;;;;;;;25.05;23.55;;;9.10;85.10;;;;;;5086707;28;20207;-71
2021/10/01 00:29:39;;;;;;;24.08;22.77;;;9.00;85.30;;;;;;5083962;28;20238;-70
2021/10/01 00:32:07;;;;;;;23.88;22.50;;;9.00;85.30;;;;;;5087399;28;20229;-71
2021/10/01 00:34:35;;;;;;;23.42;22.02;;;9.00;85.40;;;;;;5084202;28;20208;-71
2021/10/01 00:37:02;;;;;;;24.05;22.30;;;9.00;85.30;;;;;;5077810;28;20201;-71
2021/10/01 00:39:29;;;;;;;23.70;22.40;;;9.00;85.20;;;;;;5071519;28;20228;-71
2021/10/01 00:41:56;;;;;;;24.05;22.70;;;9.00;85.20;;;;;;5084378;28;20198;-70
2021/10/01 00:44:23;;;;;;;24.17;22.67;;;9.00;85.40;;;;;;5079862;28;20236;-71
2021/10/01 00:46:50;;;;;;;24.05;22.55;;;8.90;85.60;;;;;;5077234;28;20203;-71
2021/10/01 00:49:17;;;;;;;23.85;22.55;;;8.90;85.80;;;;;;5070908;28;20194;-71
2021/10/01 00:51:46;;;;;;;23.58;22.27;;;8.90;85.60;;;;;;5082132;28;20213;-71
2021/10/01 00:54:13;;;;;;;23.40;22.05;;;9.00;85.40;;;;;;5081535;28;20878;-70
2021/10/01 00:56:40;;;;;;;24.48;23.05;;;9.00;85.20;;;;;;5079952;28;20220;-70
2021/10/01 00:59:07;;;;;;;23.88;22.48;;;8.90;85.20;;;;;;5074883;28;20217;-71
2021/10/01 01:01:34;;;;;;;24.30;22.90;;;8.90;85.40;;;;;;5082938;28;20224;-70
2021/10/01 01:04:04;;;;;;;23.40;22.00;;;8.90;85.40;;;;;;5073540;28;20868;-71
2021/10/01 01:06:41;;;;;;;24.45;23.05;;;8.80;85.70;;;;;;5082901;28;20561;-70
2021/10/01 01:09:24;;;;;;;24.25;22.85;;;8.70;86.00;;;;;;5079949;28;20207;-71
2021/10/01 01:12:07;;;;;;;23.80;22.50;;;8.70;86.00;;;;;;5068198;28;20210;-70
2021/10/01 01:14:42;;;;;;;24.20;22.67;;;8.80;85.90;;;;;;5073723;28;20204;-71
2021/10/01 01:17:14;;;;;;;24.20;22.70;;;8.80;85.80;;;;;;5067254;28;20195;-71
2021/10/01 01:20:04;;;;;;;23.83;22.52;;;8.80;85.80;;;;;;5071246;28;20227;-70
2021/10/01 01:22:42;;;;;;;24.35;22.77;;;8.80;85.80;;;;;;5073069;28;20207;-70
2021/10/01 01:25:24;;;;;;;23.73;22.35;;;8.80;86.00;;;;;;5079478;28;20796;-70
2021/10/01 01:28:03;;;;;;;23.52;22.23;;;8.80;86.10;;;;;;5071151;28;20192;-71
2021/10/01 01:30:35;;;;;;;24.50;23.00;;;8.80;85.90;;;;;;5076694;28;20231;-71
2021/10/01 01:33:06;;;;;;;23.33;22.13;;;8.80;86.00;;;;;;5077312;28;20212;-70
2021/10/01 01:35:37;;;;;;;22.60;21.40;;;8.80;86.00;;;;;;5074733;28;20194;-70
2021/10/01 01:38:07;;;;;;;23.60;22.30;;;8.80;85.80;;;;;;5069583;28;20224;-71
2021/10/01 01:40:36;;;;;;;24.55;23.05;;;8.80;85.90;;;;;;5077770;28;20227;-70
2021/10/01 01:43:06;;;;;;;23.83;22.38;;;8.70;86.20;;;;;;5073112;28;20200;-71
2021/10/01 01:45:36;;;;;;;24.02;22.73;;;8.80;85.80;;;;;;5079022;28;20236;-71
2021/10/01 01:48:06;;;;;;;23.30;21.90;;;8.80;86.00;;;;;;5075891;28;20206;-71
2021/10/01 01:50:33;;;;;;;23.45;22.05;;;8.70;86.10;;;;;;5078734;28;20220;-71
2021/10/01 01:53:02;;;;;;;23.70;22.50;;;8.70;86.40;;;;;;5076868;28;20295;-71
2021/10/01 01:55:30;;;;;;;23.33;21.80;;;8.60;86.70;;;;;;5077754;28;20200;-71
2021/10/01 01:57:59;;;;;;;23.90;22.52;;;8.60;86.70;;;;;;5077037;28;20225;-71
2021/10/01 02:00:27;;;;;;;23.98;22.67;;;8.60;86.70;;;;;;5081226;28;20220;-70
2021/10/01 02:02:55;;;;;;;22.85;21.60;;;8.60;86.60;;;;;;5074661;28;20189;-70
2021/10/01 02:05:25;;;;;;;23.88;22.38;;;8.60;86.70;;;;;;5069690;28;20205;-70
2021/10/01 02:07:55;;;;;;;23.10;21.80;;;8.60;86.70;;;;;;5070938;28;20652;-70
2021/10/01 02:10:23;;;;;;;24.70;23.20;;;8.50;87.10;;;;;;5071925;28;20214;-70
2021/10/01 02:12:53;;;;;;;24.23;22.40;;;8.50;87.10;;;;;;5081632;28;20283;-71
2021/10/01 02:15:22;;;;;;;23.85;22.55;;;8.60;87.00;;;;;;5086255;28;20196;-70
2021/10/01 02:17:51;;;;;;;23.70;22.40;;;8.50;86.70;;;;;;5071893;28;20200;-71
2021/10/01 02:20:19;;;;;;;23.38;22.17;;;8.50;87.00;;;;;;5072665;28;20222;-70
2021/10/01 02:22:48;;;;;;;22.65;21.45;;;8.50;87.10;;;;;;5072724;28;20222;-70
2021/10/01 02:28:05;;;;;;;24.88;23.38;;;8.50;87.20;;;;;;5086099;28;20209;-70
2021/10/01 02:30:34;;;;;;;24.67;23.05;;;8.40;87.40;;;;;;5072483;28;20222;-70
2021/10/01 02:33:05;;;;;;;23.85;22.45;;;8.40;87.40;;;;;;5072578;28;20208;-71
2021/10/01 02:35:33;;;;;;;22.85;21.65;;;8.40;87.60;;;;;;5082136;28;20242;-71
2021/10/01 02:38:02;;;;;;;25.10;23.38;;;8.40;87.30;;;;;;5084269;28;20191;-70
2021/10/01 02:40:29;;;;;;;23.30;21.90;;;8.40;87.60;;;;;;5076409;28;20325;-71
2021/10/01 02:42:56;;;;;;;25.05;23.65;;;8.40;87.60;;;;;;5083498;28;20291;-70
2021/10/01 02:45:23;;;;;;;25.20;23.48;;;8.40;87.70;;;;;;5077673;28;20226;-71
2021/10/01 02:47:51;;;;;;;23.70;22.27;;;8.30;87.70;;;;;;5085946;28;20207;-71
2021/10/01 02:50:20;;;;;;;23.20;21.90;;;8.30;88.10;;;;;;5074039;28;20218;-71
2021/10/01 02:52:52;;;;;;;23.40;21.92;;;8.30;88.20;;;;;;5078457;28;20582;-72
2021/10/01 02:55:22;;;;;;;25.45;23.85;;;8.30;88.20;;;;;;5084772;28;20673;-71
2021/10/01 02:57:55;;;;;;;24.20;22.80;;;8.30;87.90;;;;;;5083048;28;20771;-71
2021/10/01 03:00:23;;;;;;;24.15;22.85;;;8.30;87.90;;;;;;5084409;28;20219;-71
2021/10/01 03:02:53;;;;;;;23.58;22.17;;;8.30;88.10;;;;;;5070564;28;20287;-72
2021/10/01 03:05:22;;;;;;;23.48;22.08;;;8.40;87.90;;;;;;5077141;28;20204;-72
2021/10/01 03:07:50;;;;;;;25.15;23.85;;;8.40;87.70;;;;;;5072086;28;20202;-70
2021/10/01 03:10:18;;;;;;;23.65;22.35;;;8.30;87.70;;;;;;5072223;28;20208;-70
2021/10/01 03:12:47;;;;;;;23.77;22.42;;;8.40;87.70;;;;;;5071026;28;20224;-71
2021/10/01 03:15:16;;;;;;;24.38;23.08;;;8.30;87.70;;;;;;5069554;28;20288;-70
2021/10/01 03:17:45;;;;;;;24.88;23.38;;;8.30;87.90;;;;;;5080480;28;20203;-71
2021/10/01 03:20:13;;;;;;;24.92;23.48;;;8.30;87.90;;;;;;5076574;28;20334;-70
2021/10/01 03:22:41;;;;;;;24.30;22.83;;;8.30;87.90;;;;;;5072688;28;20196;-70
2021/10/01 03:25:09;;;;;;;24.80;23.30;;;8.30;87.90;;;;;;5085832;28;20198;-71
2021/10/01 03:27:36;;;;;;;24.15;22.65;;;8.30;88.20;;;;;;5081481;28;20206;-70
2021/10/01 03:30:08;;;;;;;24.73;23.35;;;8.30;88.20;;;;;;5072305;28;20600;-70
2021/10/01 03:32:35;;;;;;;24.58;22.50;;;8.20;88.10;;;;;;5069759;28;20291;-71
2021/10/01 03:35:04;;;;;;;24.88;23.48;;;8.20;88.30;;;;;;5078355;28;20289;-70
2021/10/01 03:37:31;;;;;;;25.90;24.17;;;8.20;88.50;;;;;;5082558;28;20205;-70
2021/10/01 03:40:00;;;;;;;24.33;22.92;;;8.20;88.50;;;;;;5077671;28;20612;-70
2021/10/01 03:42:27;;;;;;;25.90;24.40;;;8.20;88.60;;;;;;5080855;28;20816;-71
2021/10/01 03:44:55;;;;;;;24.98;23.52;;;8.20;88.60;;;;;;5074538;28;20218;-70
2021/10/01 03:47:23;;;;;;;24.58;23.13;;;8.20;88.70;;;;;;5075843;28;20581;-70
2021/10/01 03:49:50;;;;;;;25.88;24.20;;;8.20;88.80;;;;;;5074965;28;20223;-70
2021/10/01 03:52:17;;;;;;;24.45;22.90;;;8.20;88.70;;;;;;5084362;28;20230;-71
2021/10/01 03:54:47;;;;;;;26.20;24.70;;;8.20;88.90;;;;;;5076008;28;20200;-70
2021/10/01 03:57:14;;;;;;;24.48;23.08;;;8.20;88.90;;;;;;5079767;28;20282;-71
2021/10/01 03:59:41;;;;;;;24.17;22.63;;;8.20;88.80;;;;;;5078394;28;20215;-70
2021/10/01 04:02:08;;;;;;;23.75;22.55;;;8.20;88.90;;;;;;5075247;28;20192;-71
2021/10/01 04:04:37;;;;;;;24.15;22.75;;;8.20;89.00;;;;;;5073680;28;20256;-71
2021/10/01 04:07:04;;;;;;;25.52;24.02;;;8.20;88.70;;;;;;5072586;28;20194;-70
2021/10/01 04:09:31;;;;;;;26.50;25.00;;;8.20;88.50;;;;;;5071745;28;20198;-70
2021/10/01 04:11:58;;;;;;;24.08;22.40;;;8.10;88.60;;;;;;5080406;28;20199;-70
2021/10/01 04:14:25;;;;;;;23.50;22.00;;;8.10;88.80;;;;;;5079869;28;20222;-71
2021/10/01 04:16:53;;;;;;;25.10;23.65;;;8.00;88.90;;;;;;5082503;28;20200;-70
2021/10/01 04:19:20;;;;;;;26.73;25.20;;;8.00;89.00;;;;;;5084005;28;20223;-70
2021/10/01 04:21:48;;;;;;;23.77;22.38;;;8.00;89.00;;;;;;5076850;28;20222;-70
2021/10/01 04:24:15;;;;;;;25.45;23.60;;;8.00;88.90;;;;;;5081099;28;20214;-70
2021/10/01 04:26:42;;;;;;;24.02;22.65;;;7.90;89.10;;;;;;5078688;28;20196;-70
2021/10/01 04:29:09;;;;;;;25.17;23.67;;;8.00;89.20;;;;;;5080633;28;20700;-70
2021/10/01 04:31:36;;;;;;;24.50;23.10;;;8.00;89.10;;;;;;5071963;28;20299;-71
2021/10/01 04:34:04;;;;;;;22.95;21.83;;;8.10;88.90;;;;;;5075485;28;20283;-73
2021/10/01 04:36:33;;;;;;;23.88;22.48;;;8.00;88.80;;;;;;5078632;28;20200;-72
2021/10/01 04:39:01;;;;;;;24.20;22.65;;;8.00;89.00;;;;;;5084790;28;20232;-72
2021/10/01 04:41:28;;;;;;;22.35;21.05;;;8.00;89.10;;;;;;5078859;28;20299;-71
2021/10/01 04:43:55;;;;;;;24.55;23.15;;;8.10;88.80;;;;;;5074637;28;20277;-70
2021/10/01 04:49:44;;;;;;;23.00;21.60;;;8.00;89.10;;;;;;5073671;28;20245;-70
2021/10/01 04:52:11;;;;;;;24.55;23.05;;;7.90;89.30;;;;;;5085371;28;20204;-71
2021/10/01 04:54:39;;;;;;;23.15;21.67;;;7.90;89.40;;;;;;5076110;28;20826;-71
2021/10/01 04:57:07;;;;;;;24.50;23.10;;;7.90;89.50;;;;;;5077824;28;20203;-71
2021/10/01 04:59:34;;;;;;;24.52;23.13;;;8.00;89.40;;;;;;5076563;28;20215;-70
2021/10/01 05:02:01;;;;;;;25.58;23.88;;;8.00;89.10;;;;;;5072662;28;20194;-71
2021/10/01 05:04:28;;;;;;;23.73;22.42;;;7.90;89.10;;;;;;5084464;28;20210;-71
2021/10/01 05:06:55;;;;;;;24.70;23.20;;;8.00;89.10;;;;;;5080088;28;20210;-71
2021/10/01 05:09:22;;;;;;;23.65;22.35;;;8.00;89.00;;;;;;5078869;28;20194;-71
2021/10/01 05:11:50;;;;;;;24.25;22.75;;;7.90;89.30;;;;;;5069850;28;20204;-72
2021/10/01 05:14:17;;;;;;;24.08;22.65;;;7.90;89.40;;;;;;5074009;28;20279;-71
2021/10/01 05:16:45;;;;;;;23.40;22.10;;;7.90;89.40;;;;;;5075996;28;20191;-71
2021/10/01 05:19:12;;;;;;;26.45;24.85;;;7.90;89.40;;;;;;5084127;28;20250;-72
2021/10/01 05:21:39;;;;;;;24.83;23.42;;;7.90;89.30;;;;;;5071027;28;20218;-72
2021/10/01 05:24:06;;;;;;;25.67;23.63;;;7.90;89.60;;;;;;5076467;28;20662;-72
2021/10/01 05:26:33;;;;;;;24.55;22.95;;;7.90;89.60;;;;;;5075343;28;20725;-71
2021/10/01 05:29:01;;;;;;;24.73;23.20;;;7.90;89.60;;;;;;5083978;28;20197;-72
2021/10/01 05:31:29;;;;;;;23.90;22.50;;;7.90;89.50;;;;;;5072134;28;20378;-72
2021/10/01 05:33:56;;;;;;;24.38;22.98;;;8.00;89.40;;;;;;5089405;28;20203;-71
2021/10/01 05:36:23;;;;;;;23.38;22.08;;;8.00;89.30;;;;;;5073969;28;20203;-71
2021/10/01 05:38:50;;;;;;;24.50;22.95;;;8.10;88.80;;;;;;5073286;28;20565;-71
2021/10/01 05:41:19;;;;;;;23.48;22.13;;;8.20;88.60;;;;;;5072482;28;21001;-72
2021/10/01 05:43:46;;;;;;;24.25;22.95;;;8.30;88.20;;;;;;5070402;28;20207;-72
2021/10/01 05:46:16;;;;;;;24.63;23.33;;;8.30;88.10;;;;;;5073354;28;20661;-71
2021/10/01 05:48:46;;;;;;;25.85;24.35;;;8.30;88.20;;;;;;5075131;28;20207;-71
2021/10/01 05:51:13;;;;;;;26.70;25.05;;;8.30;87.70;;;;;;5071918;28;20320;-71
2021/10/01 05:54:00;;;;;;;26.05;24.30;;;8.40;87.60;;;;;;5073809;28;20553;-70
2021/10/01 05:56:28;;;;;;;26.70;25.10;;;8.40;87.10;;;;;;5069649;28;20291;-71
2021/10/01 05:58:55;;;;;;;25.98;24.23;;;8.30;87.40;;;;;;5071609;28;20683;-70
2021/10/01 06:01:23;;;;;;;28.27;26.67;;;8.40;87.50;;;;;;5069767;28;20223;-71
2021/10/01 06:03:51;;;;;;;26.42;25.02;;;8.40;87.50;;;;;;5080326;28;20192;-70
2021/10/01 06:06:18;;;;;;;24.52;22.92;;;8.50;87.60;;;;;;5069511;28;20218;-72
2021/10/01 06:08:46;;;;;;;24.92;23.42;;;8.50;87.40;;;;;;5069369;28;20204;-71
2021/10/01 06:11:12;;;;;;;26.42;24.92;;;8.50;87.40;;;;;;5071981;28;20314;-71
2021/10/01 06:13:39;;;;;;;26.35;24.90;;;8.60;87.50;;;;;;5072152;28;20203;-72
2021/10/01 06:16:07;;;;;;;26.95;25.35;;;8.60;87.20;;;;;;5069564;28;20686;-73
2021/10/01 06:18:35;;;;;;;25.50;24.00;;;8.70;86.50;;;;;;5072551;28;20545;-74
2021/10/01 06:21:03;;;;;;;25.75;24.23;;;8.80;86.40;;;;;;5074882;28;20216;-74
2021/10/01 06:23:34;;;;;;;27.10;25.17;;;8.80;86.20;;;;;;5081899;28;20301;-72
2021/10/01 06:26:01;;;;;;;27.15;25.55;;;8.80;86.00;;;;;;5079185;28;20202;-73
2021/10/01 06:28:29;;;;;;;25.85;24.40;;;8.90;85.70;;;;;;5078395;28;20666;-72
2021/10/01 06:30:58;;;;;;;26.25;24.65;;;8.90;85.50;;;;;;5068354;28;20224;-72
2021/10/01 06:33:25;;;;;;;26.88;25.27;;;8.90;85.80;;;;;;5076487;28;20194;-72
2021/10/01 06:35:53;;;;;;;26.77;25.15;;;9.00;85.70;;;;;;5073525;28;20285;-71
2021/10/01 06:38:20;;;;;;;25.08;23.55;;;9.10;85.60;;;;;;5074438;28;20198;-71
2021/10/01 06:40:47;;;;;;;26.30;24.70;;;9.30;84.90;;;;;;5071515;28;20589;-71
2021/10/01 06:43:17;;;;;;;28.33;26.73;;;9.40;84.40;;;;;;5076764;28;20537;-71
2021/10/01 06:45:47;;;;;;;25.80;24.17;;;9.40;84.10;;;;;;5082904;28;20192;-71
2021/10/01 06:48:28;;;;;;;26.73;25.13;;;9.50;83.70;;;;;;5074333;28;20280;-71
2021/10/01 06:51:24;;;;;;;27.20;25.50;;;9.60;83.70;;;;;;5079090;28;20304;-74
2021/10/01 07:29:24;;;;;;;26.10;24.50;;;10.60;80.70;;;;;;5084921;28;20447;-72
2021/10/01 08:19:50;;;;;;;26.60;24.97;;;13.10;73.50;;;;;;5005825;28;20510;-70
2021/10/01 08:22:17;;;;;;;24.67;22.93;;;13.20;73.20;;;;;;5033878;28;20465;-71
2021/10/01 08:24:44;;;;;;;26.07;24.40;;;13.30;72.80;;;;;;5064254;28;20827;-71
2021/10/01 08:27:11;;;;;;;25.57;23.93;;;13.50;72.40;;;;;;5071254;28;20557;-70
2021/10/01 08:29:40;;;;;;;26.60;24.90;;;13.70;72.30;;;;;;5060718;28;20571;-70
2021/10/01 08:32:07;;;;;;;26.33;24.10;;;13.80;71.90;;;;;;5061805;28;20929;-70
2021/10/01 08:34:37;;;;;;;27.70;26.30;;;14.00;71.50;;;;;;5066893;28;21073;-70
2021/10/01 08:37:06;;;;;;;25.43;23.93;;;14.00;71.00;;;;;;5066937;28;20473;-70
2021/10/01 08:39:34;;;;;;;24.57;23.27;;;14.20;70.60;;;;;;5060016;28;20460;-70
2021/10/01 08:42:01;;;;;;;25.80;24.20;;;14.30;70.40;;;;;;5061594;28;20488;-70
2021/10/01 08:44:31;;;;;;;26.23;24.30;;;14.50;69.70;;;;;;5057768;28;20480;-70
2021/10/01 08:47:02;;;;;;;27.00;25.20;;;14.60;69.50;;;;;;5061712;28;21782;-70
2021/10/01 08:49:30;;;;;;;26.07;24.50;;;14.70;69.90;;;;;;5057812;28;20899;-71
2021/10/01 08:51:57;;;;;;;26.30;24.57;;;14.70;69.90;;;;;;5065385;28;20456;-70
2021/10/01 08:54:25;;;;;;;25.73;24.33;;;14.90;69.90;;;;;;5062833;28;20815;-70
2021/10/01 08:56:52;;;;;;;26.23;24.50;;;15.00;69.60;;;;;;5071464;28;20976;-70
2021/10/01 08:59:20;;;;;;;26.57;24.57;;;15.10;69.40;;;;;;5065847;28;20450;-71
2021/10/01 09:01:47;;;;;;;25.50;24.00;;;15.10;69.30;;;;;;5069568;28;20490;-70
2021/10/01 09:04:16;;;;;;;26.10;24.60;;;15.30;69.10;;;;;;5069413;28;20458;-70
2021/10/01 09:06:45;;;;;;;27.97;26.23;;;15.40;68.70;;;;;;5065407;28;20457;-70
2021/10/01 09:09:13;;;;;;;26.20;24.23;;;15.40;68.60;;;;;;5062296;28;20466;-70
2021/10/01 09:11:45;;;;;;;26.37;24.77;;;15.50;68.40;;;;;;5062540;28;20469;-71
2021/10/01 09:14:13;;;;;;;25.07;23.47;;;15.60;68.00;;;;;;5065802;28;20460;-70
2021/10/01 09:16:43;;;;;;;27.70;25.90;;;15.80;67.50;;;;;;5062754;28;20973;-71
2021/10/01 09:19:12;;;;;;;26.07;24.20;;;15.80;67.50;;;;;;5074314;28;20639;-71
2021/10/01 09:21:46;;;;;;;27.93;26.23;;;15.90;67.00;;;;;;5066675;28;20941;-70
2021/10/01 09:24:15;;;;;;;27.67;25.97;;;16.00;66.80;;;;;;5059367;28;20592;-70
2021/10/01 09:26:50;;;;;;;26.80;25.27;;;16.10;66.50;;;;;;5059685;28;20994;-70
2021/10/01 09:29:26;;;;;;;27.00;25.53;;;16.20;66.40;;;;;;5058799;28;20472;-70
2021/10/01 09:31:53;;;;;;;26.20;24.80;;;16.30;66.20;;;;;;5058507;28;20468;-71
2021/10/01 09:34:34;;;;;;;28.40;25.67;;;16.40;66.40;;;;;;5067565;28;20458;-70
2021/10/01 09:37:06;;;;;;;26.63;25.13;;;16.50;66.10;;;;;;5062891;28;20467;-70
2021/10/01 09:39:35;;;;;;;26.30;24.47;;;16.50;66.10;;;;;;5061531;28;20454;-73
2021/10/01 09:42:12;;;;;;;26.30;24.80;;;16.60;65.90;;;;;;5059801;28;20486;-72
2021/10/01 09:44:45;;;;;;;26.37;24.77;;;16.70;65.80;;;;;;5063567;28;20454;-73
2021/10/01 09:47:12;;;;;;;27.77;26.00;;;16.80;65.50;;;;;;5063097;28;20505;-73
2021/10/01 09:49:39;;;;;;;26.90;25.07;;;16.90;65.10;;;;;;5060686;28;20493;-73
2021/10/01 09:52:11;;;;;;;26.07;24.57;;;17.10;64.60;;;;;;5068590;28;20490;-73
2021/10/01 09:54:38;;;;;;;27.93;26.27;;;17.20;64.20;;;;;;5059664;28;21030;-73
2021/10/01 09:57:07;;;;;;;26.30;24.80;;;17.30;63.90;;;;;;5064567;28;20479;-73
2021/10/01 09:59:36;;;;;;;26.00;24.60;;;17.40;63.70;;;;;;5062769;28;20468;-73
2021/10/01 10:02:08;;;;;;;24.97;23.47;;;17.40;63.40;;;;;;5061611;28;20518;-73
2021/10/01 10:04:39;;;;;;;26.90;25.30;;;17.50;63.30;;;;;;5065733;28;20460;-74
2021/10/01 10:07:15;;;;;;;26.07;24.57;;;17.50;63.20;;;;;;5056040;28;20469;-73
2021/10/01 10:09:45;;;;;;;26.77;24.83;;;17.60;63.00;;;;;;5059397;28;20463;-72
2021/10/01 10:12:14;;;;;;;27.07;25.57;;;17.70;62.70;;;;;;5067809;28;20449;-73
2021/10/01 10:14:48;;;;;;;27.47;26.07;;;17.80;62.00;;;;;;5073121;28;20462;-71
2021/10/01 10:17:21;;;;;;;26.90;25.53;;;17.90;62.20;;;;;;5067579;28;20466;-71
2021/10/01 10:19:48;;;;;;;28.03;25.93;;;18.00;61.90;;;;;;5063693;28;20568;-71
2021/10/01 10:22:19;;;;;;;26.23;24.43;;;18.10;62.10;;;;;;5067025;28;20477;-71
2021/10/01 10:24:46;;;;;;;25.60;24.17;;;18.10;61.50;;;;;;5059730;28;20828;-70
2021/10/01 10:27:13;;;;;;;25.23;23.73;;;18.10;61.60;;;;;;5061175;28;20458;-70
2021/10/01 10:29:42;;;;;;;25.40;24.03;;;18.20;61.00;;;;;;5059498;28;21010;-70
2021/10/01 10:32:11;;;;;;;25.17;23.77;;;18.30;60.90;;;;;;5061733;28;20900;-70
2021/10/01 10:34:50;;;;;;;27.77;26.17;;;18.40;59.70;;;;;;5061041;28;20462;-70
2021/10/01 10:37:19;;;;;;;26.50;25.07;;;18.50;59.10;;;;;;5073421;28;20465;-72
2021/10/01 10:39:54;;;;;;;25.90;24.50;;;18.60;58.50;;;;;;5071040;28;21005;-75
2021/10/01 10:42:33;;;;;;;24.97;23.67;;;18.60;58.60;;;;;;5079328;28;20548;-74
2021/10/01 10:45:15;;;;;;;26.47;24.87;;;18.70;58.00;;;;;;5067086;28;20553;-75
2021/10/01 10:47:48;;;;;;;26.33;24.83;;;18.70;58.20;;;;;;5070817;28;20450;-71
2021/10/01 10:50:45;;;;;;;26.23;24.77;;;18.80;58.00;;;;;;5070204;28;20481;-73
2021/10/01 10:53:20;;;;;;;26.40;24.90;;;18.90;57.60;;;;;;5075327;28;20458;-72
2021/10/01 10:56:06;;;;;;;25.90;24.40;;;18.90;57.10;;;;;;5074225;28;20457;-73
2021/10/01 10:58:55;;;;;;;25.47;24.07;;;18.90;57.80;;;;;;5078504;28;20457;-72
2021/10/01 11:01:39;;;;;;;24.97;23.57;;;19.00;57.70;;;;;;5072718;28;21004;-73
2021/10/01 11:04:39;;;;;;;25.10;23.50;;;19.20;57.60;;;;;;5076314;28;20464;-73
2021/10/01 11:07:08;;;;;;;25.73;24.33;;;19.30;56.70;;;;;;5074537;28;20914;-72
2021/10/01 11:09:38;;;;;;;25.87;24.47;;;19.30;56.30;;;;;;5083607;28;20715;-72
2021/10/01 11:12:27;;;;;;;25.13;23.63;;;19.40;56.00;;;;;;5073994;28;20800;-73
2021/10/01 11:15:16;;;;;;;24.30;23.00;;;19.50;55.30;;;;;;5082370;28;20458;-74
2021/10/01 11:17:43;;;;;;;25.20;23.90;;;19.60;54.80;;;;;;5063508;28;20533;-74
2021/10/01 11:20:37;;;;;;;25.03;23.70;;;19.60;54.80;;;;;;5078937;28;20560;-73
2021/10/01 11:23:18;;;;;;;26.50;25.10;;;19.70;54.70;;;;;;5073736;28;20565;-74
2021/10/01 11:25:46;;;;;;;25.70;24.13;;;19.80;54.40;;;;;;5068198;28;20477;-73
2021/10/01 11:28:13;;;;;;;24.90;23.53;;;19.90;53.40;;;;;;5078468;28;20456;-72
2021/10/01 11:30:41;;;;;;;24.87;23.47;;;20.00;53.30;;;;;;5071776;28;20552;-71
2021/10/01 11:33:11;;;;;;;25.30;23.90;;;20.00;52.50;;;;;;5075171;28;20454;-73
2021/10/01 11:35:54;;;;;;;24.97;23.57;;;20.10;52.20;;;;;;5067605;28;20454;-72
2021/10/01 11:38:30;;;;;;;24.97;23.50;;;20.10;52.10;;;;;;5076667;28;20839;-74
2021/10/01 11:41:06;;;;;;;26.00;24.13;;;20.20;52.30;;;;;;5074984;28;20474;-73
2021/10/01 11:43:33;;;;;;;25.73;24.33;;;20.30;52.10;;;;;;5077932;28;20500;-74
2021/10/01 11:46:01;;;;;;;24.67;23.40;;;20.40;52.10;;;;;;5078784;28;20540;-73
2021/10/01 11:48:34;;;;;;;25.47;24.07;;;20.50;51.90;;;;;;5063974;28;20474;-74
2021/10/01 11:51:19;;;;;;;25.63;24.10;;;20.60;51.50;;;;;;5078922;28;20556;-73
2021/10/01 11:53:46;;;;;;;27.97;26.47;;;20.60;51.40;;;;;;5069691;28;20541;-74
2021/10/01 11:56:13;;;;;;;25.30;23.90;;;20.60;51.00;;;;;;5075956;28;20458;-74
2021/10/01 11:58:40;;;;;;;25.67;24.27;;;20.70;49.50;;;;;;5086816;28;20457;-74
2021/10/01 12:01:11;;;;;;;27.10;25.70;;;20.80;49.50;;;;;;5081378;28;20488;-75
2021/10/01 12:03:48;;;;;;;26.33;24.93;;;21.00;48.70;;;;;;5080540;28;20462;-74
2021/10/01 12:06:21;;;;;;;25.80;24.43;;;21.10;48.10;;;;;;5078514;28;20449;-74
2021/10/01 12:08:55;;;;;;;25.30;24.00;;;21.10;48.30;;;;;;5087851;28;20874;-74
2021/10/01 12:11:29;;;;;;;26.10;24.60;;;21.20;47.50;;;;;;5080593;28;20561;-74
2021/10/01 12:13:56;;;;;;;25.90;24.60;;;21.30;47.20;;;;;;5071495;28;20458;-74
2021/10/01 12:16:23;;;;;;;26.50;25.20;;;21.40;46.20;;;;;;5079055;28;20458;-74
2021/10/01 12:18:57;;;;;;;26.40;25.00;;;21.40;45.90;;;;;;5085132;28;20461;-74
2021/10/01 12:21:28;;;;;;;25.37;24.00;;;21.50;46.30;;;;;;5073832;28;20481;-74
2021/10/01 12:23:59;;;;;;;25.57;24.27;;;21.60;46.90;;;;;;5080041;28;20489;-74
2021/10/01 12:26:31;;;;;;;27.40;25.93;;;21.60;47.00;;;;;;5076597;28;20895;-74
2021/10/01 12:29:01;;;;;;;26.50;25.10;;;21.70;47.20;;;;;;5074578;28;20825;-74
2021/10/01 12:31:31;;;;;;;26.53;25.10;;;21.70;47.40;;;;;;5076729;28;20576;-74
2021/10/01 12:33:59;;;;;;;26.80;25.30;;;21.70;47.00;;;;;;5071303;28;20458;-74
2021/10/01 12:36:29;;;;;;;27.00;25.60;;;21.90;47.20;;;;;;5070548;28;20465;-74
2021/10/01 12:38:58;;;;;;;26.10;24.70;;;21.90;47.60;;;;;;5071573;28;20552;-74
2021/10/01 12:41:26;;;;;;;27.00;25.60;;;21.90;47.20;;;;;;5075802;28;21020;-74
2021/10/01 12:43:55;;;;;;;26.90;25.40;;;21.80;47.40;;;;;;5070835;28;21015;-74
2021/10/01 12:46:41;;;;;;;26.20;24.80;;;21.80;47.80;;;;;;5078149;28;20467;-74
2021/10/01 12:49:27;;;;;;;28.20;26.70;;;21.90;47.60;;;;;;5075109;28;20462;-73
2021/10/01 12:52:20;;;;;;;25.93;24.63;;;22.00;46.90;;;;;;5077916;28;20460;-73
2021/10/01 12:54:49;;;;;;;27.13;25.67;;;22.10;46.10;;;;;;5077302;28;20823;-73
2021/10/01 12:57:23;;;;;;;29.53;27.83;;;22.10;46.50;;;;;;5070902;28;20816;-73
2021/10/01 12:59:52;;;;;;;27.53;26.13;;;22.20;46.30;;;;;;5077639;28;20974;-73
2021/10/01 13:02:21;;;;;;;26.40;25.00;;;22.20;46.10;;;;;;5079547;28;20931;-74
2021/10/01 13:05:00;;;;;;;28.63;27.23;;;22.20;46.30;;;;;;5077838;28;20493;-73
2021/10/01 13:07:34;;;;;;;26.73;25.23;;;22.20;46.10;;;;;;5071805;28;20835;-73
2021/10/01 13:10:05;;;;;;;26.17;24.80;;;22.20;46.60;;;;;;5088364;28;20482;-74
2021/10/01 13:12:38;;;;;;;27.97;26.37;;;22.20;46.90;;;;;;5088840;28;20457;-74
2021/10/01 13:15:15;;;;;;;27.40;25.30;;;22.40;46.90;;;;;;5088743;28;20454;-73
2021/10/01 13:17:42;;;;;;;25.60;24.30;;;22.40;46.80;;;;;;5076627;28;20454;-73
2021/10/01 13:20:10;;;;;;;28.87;27.30;;;22.40;46.30;;;;;;5082369;28;20501;-73
2021/10/01 13:23:03;;;;;;;27.33;25.80;;;22.40;46.90;;;;;;5070687;28;20484;-73
2021/10/01 13:25:33;;;;;;;26.67;25.27;;;22.40;47.20;;;;;;5076393;28;20464;-73
2021/10/01 13:28:02;;;;;;;27.00;25.50;;;22.40;47.40;;;;;;5070418;28;20450;-73
2021/10/01 13:30:29;;;;;;;28.23;26.63;;;22.40;47.30;;;;;;5072865;28;20943;-73
2021/10/01 13:32:57;;;;;;;27.00;25.60;;;22.40;47.60;;;;;;5083319;28;21071;-73
2021/10/01 13:35:24;;;;;;;28.73;27.23;;;22.50;48.00;;;;;;5088305;28;20452;-74
2021/10/01 13:37:52;;;;;;;27.27;25.57;;;22.40;47.40;;;;;;5070308;28;20531;-73
2021/10/01 13:40:22;;;;;;;25.70;24.30;;;22.50;48.00;;;;;;5077939;28;20793;-74
2021/10/01 13:42:49;;;;;;;26.87;25.47;;;22.50;48.30;;;;;;5080179;28;20522;-72
2021/10/01 13:45:16;;;;;;;29.53;27.80;;;22.50;49.00;;;;;;5074052;28;20445;-72
2021/10/01 13:47:44;;;;;;;31.33;29.23;;;22.60;49.30;;;;;;5072894;28;20450;-72
2021/10/01 13:50:12;;;;;;;27.10;25.60;;;22.50;49.50;;;;;;5076759;28;20478;-72
2021/10/01 13:52:39;;;;;;;27.30;25.80;;;22.50;50.10;;;;;;5082834;28;20446;-74
2021/10/01 13:55:09;;;;;;;26.77;25.17;;;22.50;51.10;;;;;;5071977;28;21098;-73
2021/10/01 13:57:37;;;;;;;25.97;24.37;;;22.60;51.20;;;;;;5075794;28;20456;-73
2021/10/01 14:00:07;;;;;;;28.63;26.50;;;22.70;51.50;;;;;;5075416;28;20480;-73
2021/10/01 14:02:36;;;;;;;27.63;26.13;;;22.70;51.40;;;;;;5067805;28;20478;-74
2021/10/01 14:05:04;;;;;;;27.70;26.20;;;22.70;51.50;;;;;;5067917;28;20453;-73
2021/10/01 14:07:32;;;;;;;27.87;26.20;;;22.70;51.60;;;;;;5074203;28;20888;-74
2021/10/01 14:10:00;;;;;;;27.67;26.20;;;22.70;51.20;;;;;;5069639;28;20805;-73
2021/10/01 14:12:28;;;;;;;29.03;27.17;;;22.70;51.70;;;;;;5088646;28;20462;-73
2021/10/01 14:14:57;;;;;;;27.97;26.50;;;22.60;52.00;;;;;;5073809;28;20472;-74
2021/10/01 14:17:25;;;;;;;29.50;27.90;;;22.70;52.00;;;;;;5081868;28;20983;-74